Nearby METAR Reports

 

KKLS - Kelso Longveiw, Washington, USA
Distance from station: ESE 7mi, 11km
Updated: 2017-08-16 05:56
Clear
Clear
 Wind from calm
Wind: Calm
Temperature: 52°F , 11°C
Dew Point: 48°F , 9°C
Humidity: 88%
Barometer: 1019.3 hPa
Clouds: Clear
Visibility: 10 miles , 16 km
2017/08/16 12:56 KKLS 161256Z AUTO 00000KT 10SM CLR 11/09 A3010 RMK AO2 SLP198 T01060094
KSPB - Scappoose, Oregon, USA
Distance from station: SSE 29mi, 46km
Updated: 2017-08-16 05:53
Clear
Clear
 Wind from calm
Wind: Calm
Temperature: 54°F , 12°C
Dew Point: 46°F , 8°C
Humidity: 77%
Barometer: 1018.3 hPa
Clouds: Clear
Visibility: 10 miles , 16 km
2017/08/16 12:53 KSPB 161253Z AUTO 00000KT 10SM CLR 12/08 A3007 RMK AO2 SLP182 T01170083
 
KCLS - Chehalis Central, Washington, USA
Distance from station: N 36mi, 58km
Updated: 2017-08-16 05:55
Clear
Clear
 Wind from calm
Wind: Calm
Temperature: 50°F , 10°C
Dew Point: 50°F , 10°C
Humidity: 100%
Barometer: 1019.3 hPa
Clouds: Clear
Visibility: 10 miles , 16 km
2017/08/16 12:55 KCLS 161255Z AUTO 00000KT 10SM CLR 10/10 A3010 RMK AO2
KAST - Astoria, Oregon, USA
Distance from station: W 41mi, 66km
Updated: 2017-08-16 05:55
Overcast
Overcast
 Wind from varies
Wind: varies 6 mph , 9 km/h
Temperature: 57°F , 14°C
Dew Point: 52°F , 11°C
Humidity: 82%
Barometer: 1019.3 hPa
Clouds: Overcast
Visibility: 10 miles , 16 km
Cloud details: Overcast 1700 ft
2017/08/16 12:55 KAST 161255Z AUTO VRB05KT 10SM OVC017 14/11 A3010 RMK AO2 SLP192 T01390111
 
KVUO - Vancouver, Washington, USA
Distance from station: SSE 42mi, 68km
Updated: 2017-08-16 05:53
Clear
Clear
 Wind from varies
Wind: varies 3 mph , 6 km/h
Temperature: 57°F , 14°C
Dew Point: 48°F , 9°C
Humidity: 72%
Barometer: 1018.6 hPa
Clouds: Clear
Visibility: 10 miles , 16 km
2017/08/16 12:53 KVUO 161253Z AUTO VRB03KT 10SM CLR 14/09 A3008 RMK AO2 SLP185 T01390094
KHIO - Hillsboro/Portld, Oregon, USA
Distance from station: S 43mi, 69km
Updated: 2017-08-16 05:53
Clear
Clear
 Wind from calm
Wind: Calm
Temperature: 52°F , 11°C
Dew Point: 46°F , 8°C
Humidity: 82%
Barometer: 1018.3 hPa
Clouds: Clear
Visibility: 10 miles , 16 km
2017/08/16 12:53 KHIO 161253Z 00000KT 10SM CLR 11/08 A3007 RMK AO2 SLP181 T01060083 $
 
KPDX - Portland, Oregon, USA
Distance from station: SSE 44mi, 70km
Updated: 2017-08-16 05:53
Few Clouds
Few Clouds
 Wind from NNW
Wind: NNW 5 mph , 7 km/h
Temperature: 57°F , 14°C
Dew Point: 48°F , 9°C
Humidity: 72%
Barometer: 1018.6 hPa
Clouds: Few Clouds
Visibility: 10 miles , 16 km
Cloud details: Few Clouds 20000 ft
2017/08/16 12:53 KPDX 161253Z 33004KT 10SM FEW200 14/09 A3008 RMK AO2 SLP184 T01440094